createdAt,value
2023-05-10T00:00:15.253Z,93.40
2023-05-10T00:02:42.156Z,94.00
2023-05-10T00:05:09.835Z,94.00
2023-05-10T00:07:36.550Z,94.00
2023-05-10T00:10:05.344Z,94.40
2023-05-10T00:12:32.029Z,94.40
2023-05-10T00:14:58.840Z,94.50
2023-05-10T00:17:25.585Z,94.40
2023-05-10T00:19:52.368Z,94.70
2023-05-10T00:22:19.087Z,94.70
2023-05-10T00:24:45.904Z,95.00
2023-05-10T00:27:14.053Z,95.30
2023-05-10T00:29:40.750Z,95.10
2023-05-10T00:32:07.649Z,95.20
2023-05-10T00:34:34.381Z,95.60
2023-05-10T00:37:01.111Z,95.80
2023-05-10T00:39:27.847Z,95.50
2023-05-10T00:41:54.583Z,95.50
2023-05-10T00:44:22.700Z,96.20
2023-05-10T00:46:50.093Z,96.10
2023-05-10T00:49:17.556Z,96.00
2023-05-10T00:51:44.545Z,96.10
2023-05-10T00:54:12.684Z,96.10
2023-05-10T00:56:40.344Z,96.70
2023-05-10T00:59:07.638Z,96.20
2023-05-10T01:01:36.355Z,96.20
2023-05-10T01:04:03.431Z,96.10
2023-05-10T01:06:30.189Z,96.30
2023-05-10T01:08:57.228Z,96.10
2023-05-10T01:11:23.996Z,96.50
2023-05-10T01:13:58.058Z,96.50
2023-05-10T01:16:25.198Z,96.80
2023-05-10T01:22:43.932Z,96.50
2023-05-10T01:25:41.878Z,97.00
2023-05-10T01:28:37.137Z,96.90
2023-05-10T01:31:23.152Z,97.00
2023-05-10T01:33:56.823Z,97.00
2023-05-10T01:36:31.853Z,97.10
2023-05-10T01:39:04.694Z,96.90
2023-05-10T01:41:42.964Z,97.20
2023-05-10T01:44:17.932Z,97.50
2023-05-10T01:46:49.740Z,97.50
2023-05-10T01:49:24.773Z,97.70
2023-05-10T01:51:54.858Z,97.80
2023-05-10T01:54:23.821Z,97.30
2023-05-10T01:56:56.660Z,97.50
2023-05-10T01:59:28.921Z,97.30
2023-05-10T02:01:58.233Z,97.60
2023-05-10T02:04:27.904Z,97.70
2023-05-10T02:06:55.961Z,97.20
2023-05-10T02:09:24.362Z,97.10
2023-05-10T02:11:51.736Z,97.70
2023-05-10T02:14:20.666Z,97.30
2023-05-10T02:16:48.124Z,96.80
2023-05-10T02:19:15.862Z,97.30
2023-05-10T02:21:45.313Z,97.50
2023-05-10T02:24:14.732Z,97.60
2023-05-10T02:26:43.029Z,97.80
2023-05-10T02:29:10.736Z,97.60
2023-05-10T02:31:37.737Z,98.40
2023-05-10T02:34:06.758Z,98.30
2023-05-10T02:36:33.849Z,98.30
2023-05-10T02:39:03.073Z,97.90
2023-05-10T02:41:33.203Z,98.10
2023-05-10T02:44:03.429Z,98.00
2023-05-10T02:46:30.466Z,98.50
2023-05-10T02:48:57.321Z,98.50
2023-05-10T02:51:29.096Z,98.60
2023-05-10T02:53:57.975Z,98.50
2023-05-10T02:56:30.075Z,98.20
2023-05-10T02:58:56.932Z,98.50
2023-05-10T03:01:23.818Z,98.50
2023-05-10T03:03:50.717Z,98.10
2023-05-10T03:06:17.428Z,97.90
2023-05-10T03:08:45.245Z,98.00
2023-05-10T03:11:29.256Z,98.00
2023-05-10T03:14:09.208Z,97.90
2023-05-10T03:16:44.867Z,97.50
2023-05-10T03:19:17.277Z,97.60
2023-05-10T03:21:51.349Z,97.40
2023-05-10T03:24:20.019Z,97.30
2023-05-10T03:26:49.767Z,97.50
2023-05-10T03:29:18.108Z,97.50
2023-05-10T03:31:45.095Z,97.50
2023-05-10T03:34:11.908Z,97.60
2023-05-10T03:36:38.696Z,97.60
2023-05-10T03:39:05.416Z,97.60
2023-05-10T03:41:32.190Z,97.70
2023-05-10T03:44:00.278Z,97.90
2023-05-10T03:46:27.118Z,97.90
2023-05-10T03:48:53.883Z,98.00
2023-05-10T03:51:20.736Z,98.00
2023-05-10T03:53:47.457Z,98.10
2023-05-10T03:56:14.246Z,98.10
2023-05-10T03:58:40.994Z,97.90
2023-05-10T04:01:09.105Z,97.90
2023-05-10T04:03:35.910Z,97.80
2023-05-10T04:06:03.097Z,98.00
2023-05-10T04:08:29.996Z,98.00
2023-05-10T04:11:06.324Z,97.90
2023-05-10T04:13:33.055Z,98.00
2023-05-10T04:15:59.771Z,97.90
2023-05-10T04:18:27.910Z,98.00
2023-05-10T04:20:54.696Z,98.00
2023-05-10T04:23:21.430Z,98.00
2023-05-10T04:25:48.176Z,97.90
2023-05-10T04:28:14.960Z,97.50
2023-05-10T04:30:41.736Z,97.10
2023-05-10T04:33:08.558Z,97.10
2023-05-10T04:35:37.211Z,97.30
2023-05-10T04:38:03.938Z,97.60
2023-05-10T04:40:30.694Z,98.00
2023-05-10T04:42:57.405Z,97.90
2023-05-10T04:45:24.149Z,98.00
2023-05-10T04:47:50.890Z,97.90
2023-05-10T04:50:17.898Z,97.70
2023-05-10T04:52:46.149Z,97.70
2023-05-10T04:55:12.891Z,97.70
2023-05-10T04:57:39.668Z,97.70
2023-05-10T05:00:07.823Z,97.80
2023-05-10T05:02:34.678Z,98.20
2023-05-10T05:05:01.522Z,97.80
2023-05-10T05:07:28.244Z,97.50
2023-05-10T05:09:56.328Z,97.80
2023-05-10T05:12:23.039Z,98.00
2023-05-10T05:14:49.748Z,97.70
2023-05-10T05:17:16.493Z,97.70
2023-05-10T05:19:43.222Z,97.50
2023-05-10T05:22:09.995Z,97.40
2023-05-10T05:24:37.110Z,97.50
2023-05-10T05:27:05.289Z,97.70
2023-05-10T05:29:32.008Z,97.60
2023-05-10T05:31:58.827Z,97.60
2023-05-10T05:34:25.607Z,97.60
2023-05-10T05:36:52.392Z,97.50
2023-05-10T05:39:19.118Z,97.80
2023-05-10T05:41:45.843Z,97.70
2023-05-10T05:44:13.939Z,97.70
2023-05-10T05:46:40.733Z,97.50
2023-05-10T05:49:07.488Z,97.40
2023-05-10T05:51:34.244Z,97.00
2023-05-10T05:54:00.936Z,97.10
2023-05-10T05:56:27.673Z,97.10
2023-05-10T05:58:54.498Z,96.90
2023-05-10T06:01:22.705Z,97.20
2023-05-10T06:03:51.008Z,97.20
2023-05-10T06:06:19.385Z,97.10
2023-05-10T06:08:46.125Z,96.90
2023-05-10T06:11:12.913Z,97.10
2023-05-10T06:13:39.652Z,97.00
2023-05-10T06:16:07.139Z,97.80
2023-05-10T06:18:35.268Z,97.50
2023-05-10T06:21:01.981Z,97.20
2023-05-10T06:23:28.769Z,96.90
2023-05-10T06:25:55.513Z,97.10
2023-05-10T06:28:22.273Z,97.40
2023-05-10T06:30:48.968Z,97.60
2023-05-10T06:33:15.682Z,97.30
2023-05-10T06:35:43.801Z,97.40
2023-05-10T06:38:10.723Z,97.40
2023-05-10T06:40:37.438Z,97.40
2023-05-10T06:43:04.193Z,97.30
2023-05-10T06:45:30.921Z,97.40
2023-05-10T06:47:57.739Z,97.40
2023-05-10T06:50:24.515Z,97.80
2023-05-10T06:52:53.174Z,97.80
2023-05-10T06:55:20.248Z,98.10
2023-05-10T06:57:46.999Z,98.00
2023-05-10T07:00:14.814Z,97.60
2023-05-10T07:02:41.744Z,97.60
2023-05-10T07:05:09.394Z,97.60
2023-05-10T07:07:36.171Z,97.40
2023-05-10T07:10:04.828Z,97.60
2023-05-10T07:12:31.750Z,97.80
2023-05-10T07:14:58.531Z,98.00
2023-05-10T07:17:25.410Z,98.30
2023-05-10T07:19:52.475Z,98.60
2023-05-10T07:22:19.288Z,97.80
2023-05-10T07:24:46.063Z,97.80
2023-05-10T07:27:14.173Z,97.70
2023-05-10T07:29:40.973Z,97.70
2023-05-10T07:32:07.886Z,97.90
2023-05-10T07:34:34.740Z,98.00
2023-05-10T07:37:02.126Z,97.70
2023-05-10T07:39:29.091Z,97.50
2023-05-10T07:41:56.032Z,97.40
2023-05-10T07:44:24.552Z,97.10
2023-05-10T07:46:51.443Z,97.20
2023-05-10T07:49:21.822Z,97.40
2023-05-10T07:51:48.620Z,97.80
2023-05-10T07:54:15.553Z,97.40
2023-05-10T07:56:42.300Z,97.20
2023-05-10T07:59:11.369Z,97.20
2023-05-10T08:01:41.032Z,97.00
2023-05-10T08:04:07.823Z,97.00
2023-05-10T08:06:34.581Z,96.60
2023-05-10T08:09:01.583Z,96.40
2023-05-10T08:11:28.455Z,96.30
2023-05-10T08:13:55.288Z,96.20
2023-05-10T08:16:22.256Z,95.90
2023-05-10T08:18:51.414Z,96.00
2023-05-10T08:21:18.206Z,96.10
2023-05-10T08:23:45.210Z,96.20
2023-05-10T08:26:12.402Z,96.30
2023-05-10T08:28:39.175Z,96.50
2023-05-10T08:31:06.403Z,96.50
2023-05-10T08:33:33.249Z,96.80
2023-05-10T08:36:01.459Z,97.40
2023-05-10T08:38:28.379Z,97.40
2023-05-10T08:40:56.069Z,97.60
2023-05-10T08:43:25.459Z,97.60
2023-05-10T08:45:55.171Z,97.20
2023-05-10T08:48:24.221Z,97.20
2023-05-10T08:50:53.809Z,97.40
2023-05-10T08:53:23.224Z,97.20
2023-05-10T08:55:52.098Z,97.00
2023-05-10T08:58:20.041Z,96.70
2023-05-10T09:00:47.859Z,96.70
2023-05-10T09:03:15.024Z,96.50
2023-05-10T09:05:42.224Z,96.30
2023-05-10T09:08:09.741Z,96.20
2023-05-10T09:10:39.376Z,96.20
2023-05-10T09:13:06.752Z,96.00
2023-05-10T09:15:35.402Z,96.00
2023-05-10T09:18:02.272Z,96.20
2023-05-10T09:20:29.248Z,96.00
2023-05-10T09:22:55.990Z,96.20
2023-05-10T09:25:22.836Z,96.20
2023-05-10T09:27:51.040Z,96.00
2023-05-10T09:30:23.682Z,95.70
2023-05-10T09:32:51.388Z,95.40
2023-05-10T09:35:19.728Z,95.10
2023-05-10T09:37:48.208Z,94.90
2023-05-10T09:40:16.184Z,94.70
2023-05-10T09:42:51.076Z,94.60
2023-05-10T09:45:19.317Z,94.50
2023-05-10T09:47:46.738Z,94.40
2023-05-10T09:50:13.700Z,94.30
2023-05-10T09:52:51.328Z,94.20
2023-05-10T09:55:20.004Z,94.20
2023-05-10T09:57:47.410Z,94.10
2023-05-10T10:00:20.503Z,94.10
2023-05-10T10:02:48.902Z,94.00
2023-05-10T10:05:16.251Z,94.00
2023-05-10T10:07:43.307Z,93.90
2023-05-10T10:10:10.709Z,93.90
2023-05-10T10:12:37.475Z,93.80
2023-05-10T10:15:05.187Z,93.70
2023-05-10T10:17:36.363Z,93.50
2023-05-10T10:20:04.111Z,93.40
2023-05-10T10:22:30.869Z,93.30
2023-05-10T10:24:58.306Z,93.00
2023-05-10T10:27:29.506Z,93.10
2023-05-10T10:30:07.272Z,93.10
2023-05-10T10:32:56.396Z,93.10
2023-05-10T10:35:23.486Z,93.10
2023-05-10T10:37:52.263Z,93.10
2023-05-10T10:40:26.356Z,93.10
2023-05-10T10:42:53.206Z,93.20
2023-05-10T10:45:20.984Z,93.10
2023-05-10T10:47:49.357Z,93.20
2023-05-10T10:50:16.252Z,93.10
2023-05-10T10:52:43.685Z,93.10
2023-05-10T10:55:11.739Z,93.20
2023-05-10T10:57:46.667Z,93.10
2023-05-10T11:00:28.576Z,93.20
2023-05-10T11:02:58.896Z,93.20
2023-05-10T11:05:40.446Z,93.20
2023-05-10T11:08:13.094Z,93.20
2023-05-10T11:10:40.602Z,93.20
2023-05-10T11:13:09.686Z,93.10
2023-05-10T11:15:37.700Z,93.20
2023-05-10T11:18:23.991Z,93.10
2023-05-10T11:20:56.923Z,93.10
2023-05-10T11:23:23.727Z,93.10
2023-05-10T11:25:50.792Z,93.10
2023-05-10T11:28:18.804Z,93.10
2023-05-10T11:30:46.216Z,93.10
2023-05-10T11:33:17.182Z,93.10
2023-05-10T11:35:45.349Z,93.20
2023-05-10T11:38:13.338Z,93.20
2023-05-10T11:40:41.197Z,93.30
2023-05-10T11:43:10.295Z,93.40
2023-05-10T11:45:37.569Z,93.60
2023-05-10T11:48:05.050Z,93.70
2023-05-10T11:50:32.070Z,93.80
2023-05-10T11:53:00.163Z,93.80
2023-05-10T11:55:26.988Z,93.60
2023-05-10T11:57:54.285Z,93.50
2023-05-10T12:00:21.723Z,93.60
2023-05-10T12:02:49.192Z,93.70
2023-05-10T12:05:16.331Z,94.00
2023-05-10T12:07:43.154Z,94.40
2023-05-10T12:10:12.930Z,94.50
2023-05-10T12:12:40.574Z,94.70
2023-05-10T12:15:12.318Z,95.00
2023-05-10T12:17:41.342Z,95.10
2023-05-10T12:20:18.579Z,95.10
2023-05-10T12:22:47.418Z,94.90
2023-05-10T12:25:15.532Z,94.80
2023-05-10T12:27:48.986Z,94.90
2023-05-10T12:30:20.619Z,95.10
2023-05-10T12:32:47.491Z,95.40
2023-05-10T12:35:14.274Z,95.50
2023-05-10T12:37:41.176Z,95.70
2023-05-10T12:40:09.714Z,95.80
2023-05-10T12:42:39.866Z,96.40
2023-05-10T12:45:07.823Z,96.10
2023-05-10T12:47:34.878Z,96.70
2023-05-10T12:50:02.994Z,96.30
2023-05-10T12:52:30.130Z,96.30
2023-05-10T12:54:56.921Z,96.70
2023-05-10T12:57:23.665Z,96.90
2023-05-10T12:59:52.505Z,97.20
2023-05-10T13:02:20.999Z,97.50
2023-05-10T13:04:50.259Z,97.80
2023-05-10T13:07:17.704Z,98.60
2023-05-10T13:09:44.500Z,99.00
2023-05-10T13:12:11.277Z,99.30
2023-05-10T13:14:38.051Z,99.50
2023-05-10T13:17:06.137Z,99.30
2023-05-10T13:19:32.962Z,99.50
2023-05-10T13:21:59.762Z,99.70
2023-05-10T13:24:26.535Z,99.80
2023-05-10T13:26:53.316Z,99.90
2023-05-10T13:29:20.054Z,99.70
2023-05-10T13:31:47.050Z,99.90
2023-05-10T13:34:15.173Z,99.70
2023-05-10T13:36:41.907Z,99.50
2023-05-10T13:39:08.654Z,99.30
2023-05-10T13:41:35.537Z,99.30
2023-05-10T13:44:02.271Z,99.30
2023-05-10T13:46:30.492Z,99.30
2023-05-10T13:48:57.246Z,99.30
2023-05-10T13:51:25.338Z,99.60
2023-05-10T13:53:52.089Z,99.50
2023-05-10T13:56:18.839Z,99.50
2023-05-10T13:58:45.597Z,99.40
2023-05-10T14:01:12.422Z,99.20
2023-05-10T14:03:39.309Z,99.50
2023-05-10T14:06:06.319Z,99.40
2023-05-10T14:08:34.631Z,99.20
2023-05-10T14:11:01.363Z,99.30
2023-05-10T14:13:28.201Z,98.90
2023-05-10T14:15:55.580Z,98.80
2023-05-10T14:18:22.455Z,98.50
2023-05-10T14:20:49.623Z,98.40
2023-05-10T14:23:16.369Z,98.40
2023-05-10T14:25:44.477Z,98.10
2023-05-10T14:28:11.268Z,97.90
2023-05-10T14:30:38.028Z,97.70
2023-05-10T14:33:04.938Z,97.40
2023-05-10T14:35:31.692Z,97.30
2023-05-10T14:37:58.405Z,97.20
2023-05-10T14:40:25.413Z,97.30
2023-05-10T14:42:53.467Z,97.50
2023-05-10T14:45:20.193Z,97.60
2023-05-10T14:47:46.971Z,97.60
2023-05-10T14:50:24.780Z,97.80
2023-05-10T14:52:58.943Z,97.80
2023-05-10T14:55:25.772Z,97.90
2023-05-10T14:57:53.866Z,97.70
2023-05-10T15:00:21.463Z,97.80
2023-05-10T15:02:48.809Z,97.70
2023-05-10T15:05:16.269Z,97.80
2023-05-10T15:07:43.508Z,97.60
2023-05-10T15:10:10.452Z,97.60
2023-05-10T15:12:40.030Z,97.60
2023-05-10T15:15:08.701Z,97.60
2023-05-10T15:17:35.511Z,97.40
2023-05-10T15:20:02.327Z,97.50
2023-05-10T15:22:29.088Z,97.60
2023-05-10T15:24:55.857Z,97.40
2023-05-10T15:27:22.626Z,97.30
2023-05-10T15:29:49.356Z,97.20
2023-05-10T15:32:17.419Z,97.20
2023-05-10T15:34:44.158Z,97.20
2023-05-10T15:37:10.925Z,97.10
2023-05-10T15:39:37.639Z,96.90
2023-05-10T15:42:04.560Z,96.70
2023-05-10T15:44:31.328Z,96.60
2023-05-10T15:46:58.083Z,96.40
2023-05-10T15:49:26.265Z,96.40
2023-05-10T15:51:52.992Z,96.30
2023-05-10T15:54:19.745Z,96.30
2023-05-10T15:56:46.547Z,96.30
2023-05-10T15:59:13.274Z,96.30
2023-05-10T16:01:40.118Z,96.10
2023-05-10T16:04:06.865Z,96.10
2023-05-10T16:06:35.360Z,96.10
2023-05-10T16:09:02.116Z,95.90
2023-05-10T16:11:28.872Z,95.70
2023-05-10T16:13:55.613Z,95.50
2023-05-10T16:16:28.557Z,95.50
2023-05-10T16:18:56.411Z,95.30
2023-05-10T16:21:35.618Z,95.20
2023-05-10T16:24:03.640Z,95.30
2023-05-10T16:26:30.404Z,95.50
2023-05-10T16:28:57.191Z,95.60
2023-05-10T16:31:24.146Z,96.10
2023-05-10T16:33:50.910Z,95.90
2023-05-10T16:36:17.714Z,95.40
2023-05-10T16:38:45.787Z,95.50
2023-05-10T16:41:12.598Z,95.60
2023-05-10T16:43:39.349Z,95.70
2023-05-10T16:46:10.675Z,95.80
2023-05-10T16:48:37.567Z,95.70
2023-05-10T16:51:04.421Z,95.80
2023-05-10T16:53:31.203Z,95.70
2023-05-10T16:55:59.251Z,95.80
2023-05-10T16:58:25.981Z,95.70
2023-05-10T17:00:52.759Z,95.50
2023-05-10T17:03:19.570Z,95.50
2023-05-10T17:05:46.352Z,95.80
2023-05-10T17:08:13.096Z,95.60
2023-05-10T17:10:40.133Z,95.50
2023-05-10T17:13:10.473Z,95.60
2023-05-10T17:15:37.716Z,95.70
2023-05-10T17:18:05.081Z,95.80
2023-05-10T17:20:31.903Z,95.80
2023-05-10T17:22:58.640Z,95.80
2023-05-10T17:25:25.398Z,95.80
2023-05-10T17:27:52.272Z,95.90
2023-05-10T17:30:20.502Z,96.00
2023-05-10T17:32:47.328Z,95.90
2023-05-10T17:35:14.300Z,95.70
2023-05-10T17:37:41.270Z,95.70
2023-05-10T17:40:09.376Z,95.60
2023-05-10T17:42:36.167Z,95.90
2023-05-10T17:45:03.069Z,95.90
2023-05-10T17:47:31.680Z,95.80
2023-05-10T17:49:58.436Z,95.90
2023-05-10T17:52:25.202Z,96.00
2023-05-10T17:54:52.101Z,96.20
2023-05-10T17:57:18.853Z,96.50
2023-05-10T17:59:45.624Z,96.00
2023-05-10T18:02:12.828Z,95.90
2023-05-10T18:04:41.177Z,95.90
2023-05-10T18:07:08.871Z,95.80
2023-05-10T18:09:35.953Z,95.70
2023-05-10T18:12:03.117Z,95.50
2023-05-10T18:14:39.570Z,95.40
2023-05-10T18:17:07.312Z,95.30
2023-05-10T18:19:34.065Z,95.60
2023-05-10T18:22:02.182Z,95.50
2023-05-10T18:24:38.282Z,95.50
2023-05-10T18:27:07.054Z,95.30
2023-05-10T18:29:33.801Z,95.10
2023-05-10T18:32:00.536Z,95.00
2023-05-10T18:34:27.298Z,94.80
2023-05-10T18:36:54.173Z,94.90
2023-05-10T18:39:22.246Z,95.20
2023-05-10T18:41:49.943Z,94.80
2023-05-10T18:44:16.690Z,95.00
2023-05-10T18:46:43.583Z,94.70
2023-05-10T18:49:10.396Z,94.50
2023-05-10T18:51:37.161Z,94.50
2023-05-10T18:54:04.181Z,94.20
2023-05-10T18:56:32.312Z,94.20
2023-05-10T18:58:59.059Z,94.60
2023-05-10T19:01:25.825Z,94.50
2023-05-10T19:03:52.646Z,94.70
2023-05-10T19:06:19.403Z,94.60
2023-05-10T19:08:46.156Z,94.30
2023-05-10T19:11:12.876Z,94.40
2023-05-10T19:13:41.055Z,94.20
2023-05-10T19:16:12.717Z,94.50
2023-05-10T19:18:39.814Z,94.60
2023-05-10T19:21:06.686Z,94.60
2023-05-10T19:23:34.007Z,94.70
2023-05-10T19:26:00.868Z,94.90
2023-05-10T19:28:27.691Z,94.90
2023-05-10T19:30:56.027Z,94.80
2023-05-10T19:33:22.777Z,94.80
2023-05-10T19:35:50.250Z,94.80
2023-05-10T19:38:17.056Z,95.10
2023-05-10T19:40:43.854Z,95.00
2023-05-10T19:43:10.861Z,95.10
2023-05-10T19:45:38.953Z,95.30
2023-05-10T19:48:07.532Z,95.40
2023-05-10T19:50:34.526Z,95.30
2023-05-10T19:53:01.275Z,94.90
2023-05-10T19:55:29.391Z,95.00
2023-05-10T19:57:56.517Z,95.20
2023-05-10T20:00:24.238Z,95.10
2023-05-10T20:02:50.985Z,95.10
2023-05-10T20:05:19.493Z,94.40
2023-05-10T20:07:46.414Z,94.50
2023-05-10T20:10:13.370Z,94.50
2023-05-10T20:12:45.580Z,94.40
2023-05-10T20:15:12.329Z,94.40
2023-05-10T20:17:39.111Z,94.70
2023-05-10T20:20:07.047Z,94.70
2023-05-10T20:22:35.149Z,94.50
2023-05-10T20:25:01.865Z,94.40
2023-05-10T20:27:29.236Z,94.50
2023-05-10T20:29:56.057Z,94.40
2023-05-10T20:32:22.750Z,94.20
2023-05-10T20:34:49.524Z,94.10
2023-05-10T20:37:16.275Z,94.00
2023-05-10T20:39:44.346Z,94.10
2023-05-10T20:42:11.070Z,94.40
2023-05-10T20:44:37.910Z,94.50
2023-05-10T20:47:04.874Z,94.70
2023-05-10T20:49:31.855Z,95.00
2023-05-10T20:51:58.967Z,95.10
2023-05-10T20:54:26.101Z,94.90
2023-05-10T20:56:54.196Z,95.00
2023-05-10T20:59:21.005Z,95.00
2023-05-10T21:01:47.773Z,95.10
2023-05-10T21:04:14.602Z,95.20
2023-05-10T21:06:42.992Z,95.30
2023-05-10T21:09:10.091Z,94.90
2023-05-10T21:11:36.976Z,95.10
2023-05-10T21:14:05.168Z,94.90
2023-05-10T21:16:32.402Z,94.90
2023-05-10T21:18:59.204Z,94.70
2023-05-10T21:21:26.106Z,94.80
2023-05-10T21:23:52.836Z,95.00
2023-05-10T21:26:20.156Z,95.00
2023-05-10T21:28:46.858Z,95.20
2023-05-10T21:31:15.642Z,95.20
2023-05-10T21:33:42.392Z,95.20
2023-05-10T21:36:09.130Z,95.20
2023-05-10T21:38:35.872Z,95.30
2023-05-10T21:41:06.634Z,95.30
2023-05-10T21:43:33.411Z,95.40
2023-05-10T21:46:00.166Z,95.20
2023-05-10T21:48:28.275Z,95.30
2023-05-10T21:50:55.018Z,95.30
2023-05-10T21:53:21.773Z,95.40
2023-05-10T21:55:48.494Z,95.00
2023-05-10T21:58:15.195Z,95.60
2023-05-10T22:00:41.964Z,95.10
2023-05-10T22:03:09.481Z,95.10
2023-05-10T22:05:38.251Z,95.20
2023-05-10T22:08:05.252Z,95.30
2023-05-10T22:10:32.006Z,95.40
2023-05-10T22:12:58.788Z,95.70
2023-05-10T22:15:25.866Z,95.60
2023-05-10T22:17:52.848Z,95.60
2023-05-10T22:20:19.928Z,95.70
2023-05-10T22:22:48.089Z,95.60
2023-05-10T22:25:14.890Z,95.60
2023-05-10T22:27:41.690Z,95.50
2023-05-10T22:30:09.435Z,95.40
2023-05-10T22:32:51.430Z,95.20
2023-05-10T22:35:18.167Z,95.20
2023-05-10T22:37:44.892Z,95.30
2023-05-10T22:40:13.348Z,95.10
2023-05-10T22:42:40.158Z,95.20
2023-05-10T22:45:08.255Z,95.20
2023-05-10T22:47:35.027Z,95.30
2023-05-10T22:50:01.843Z,95.40
2023-05-10T22:52:28.771Z,95.40
2023-05-10T22:54:55.519Z,95.40
2023-05-10T22:57:23.702Z,95.20
2023-05-10T22:59:50.422Z,95.30
2023-05-10T23:02:17.172Z,95.30
2023-05-10T23:04:43.951Z,95.20
2023-05-10T23:07:10.700Z,95.10
2023-05-10T23:09:37.406Z,95.30
2023-05-10T23:12:04.310Z,95.30
2023-05-10T23:14:32.454Z,95.60
2023-05-10T23:16:59.152Z,95.40
2023-05-10T23:19:25.975Z,95.60
2023-05-10T23:21:52.697Z,95.10
2023-05-10T23:24:19.460Z,95.20
2023-05-10T23:26:46.191Z,95.20
2023-05-10T23:29:12.920Z,95.10
2023-05-10T23:31:41.009Z,95.50
2023-05-10T23:34:07.795Z,95.30
2023-05-10T23:36:34.510Z,95.30
2023-05-10T23:39:01.207Z,95.40
2023-05-10T23:41:27.930Z,95.50
2023-05-10T23:43:54.645Z,95.90
2023-05-10T23:46:21.368Z,95.90
2023-05-10T23:48:49.453Z,96.00
2023-05-10T23:51:16.159Z,96.30
2023-05-10T23:53:42.866Z,96.50
2023-05-10T23:56:09.636Z,96.40
2023-05-10T23:58:36.371Z,96.30
